createdAt,value
2022-07-29T00:00:53.269Z,76.45
2022-07-29T00:01:53.272Z,76.25
2022-07-29T00:02:53.392Z,76.45
2022-07-29T00:03:53.319Z,76.64
2022-07-29T00:04:53.342Z,76.2
2022-07-29T00:05:53.232Z,76.06
2022-07-29T00:06:53.224Z,76.06
2022-07-29T00:07:52.963Z,76
2022-07-29T00:08:52.948Z,76.06
2022-07-29T00:09:55.060Z,75.91
2022-07-29T00:10:52.931Z,76.06
2022-07-29T00:11:53.188Z,75.91
2022-07-29T00:12:53.179Z,75.71
2022-07-29T00:13:53.654Z,75.68
2022-07-29T00:14:53.158Z,75.78
2022-07-29T00:15:53.279Z,76.06
2022-07-29T00:16:53.260Z,75.68
2022-07-29T00:17:53.134Z,75.49
2022-07-29T00:18:52.871Z,75.3
2022-07-29T00:19:53.115Z,75.14
2022-07-29T00:20:53.169Z,75.52
2022-07-29T00:21:52.843Z,75.2
2022-07-29T00:22:52.838Z,75.01
2022-07-29T00:23:52.828Z,75.24
2022-07-29T00:24:53.555Z,75.05
2022-07-29T00:25:53.522Z,74.76
2022-07-29T00:26:53.514Z,74.76
2022-07-29T00:27:53.509Z,75.34
2022-07-29T00:29:02.140Z,75.1
2022-07-29T00:29:53.233Z,75.24
2022-07-29T00:30:53.486Z,75.43
2022-07-29T00:31:53.379Z,75.34
2022-07-29T00:32:53.470Z,75.52
2022-07-29T00:33:53.456Z,75.43
2022-07-29T00:34:53.207Z,75.52
2022-07-29T00:35:55.143Z,75.49
2022-07-29T00:36:53.436Z,75.39
2022-07-29T00:37:53.430Z,75.39
2022-07-29T00:38:53.425Z,75.96
2022-07-29T00:39:53.156Z,76.25
2022-07-29T00:40:53.406Z,76.2
2022-07-29T00:41:53.402Z,76.16
2022-07-29T00:42:53.388Z,76.29
2022-07-29T00:43:53.389Z,75.91
2022-07-29T00:44:53.118Z,75.71
2022-07-29T00:45:53.361Z,75.62
2022-07-29T00:46:53.273Z,75.49
2022-07-29T00:47:53.346Z,75.62
2022-07-29T00:48:53.491Z,75.87
2022-07-29T00:49:53.076Z,75.68
2022-07-29T00:50:53.326Z,75.68
2022-07-29T00:51:53.316Z,76.1
2022-07-29T00:52:53.324Z,76.1
2022-07-29T00:53:53.297Z,76
2022-07-29T00:54:53.035Z,76.2
2022-07-29T00:55:54.833Z,76.29
2022-07-29T00:56:53.027Z,76.48
2022-07-29T00:57:53.267Z,76.39
2022-07-29T00:58:53.007Z,76.57
2022-07-29T00:59:52.991Z,76.1
2022-07-29T01:00:53.135Z,76.2
2022-07-29T01:01:53.084Z,76.25
2022-07-29T01:02:53.227Z,76.73
2022-07-29T01:03:53.222Z,76.82
2022-07-29T01:04:53.214Z,76.77
2022-07-29T01:05:54.182Z,76.82
2022-07-29T01:06:53.205Z,77.5
2022-07-29T01:07:53.190Z,77.21
2022-07-29T01:08:52.929Z,77.21
2022-07-29T01:09:53.176Z,77.21
2022-07-29T01:10:52.915Z,77.21
2022-07-29T01:11:53.159Z,77.53
2022-07-29T01:12:52.893Z,77.5
2022-07-29T01:13:52.886Z,77.11
2022-07-29T01:14:53.141Z,77.4
2022-07-29T01:15:53.277Z,77.78
2022-07-29T01:16:53.225Z,77.87
2022-07-29T01:17:56.210Z,77.11
2022-07-29T01:18:53.103Z,77.3
2022-07-29T01:19:52.834Z,77.21
2022-07-29T01:20:53.083Z,77.21
2022-07-29T01:21:53.085Z,77.21
2022-07-29T01:22:53.132Z,77.59
2022-07-29T01:23:53.061Z,77.97
2022-07-29T01:24:53.050Z,77.69
2022-07-29T01:25:56.102Z,77.69
2022-07-29T01:26:52.777Z,78.26
2022-07-29T01:27:53.029Z,78.36
2022-07-29T01:28:53.556Z,78.26
2022-07-29T01:29:54.892Z,78.16
2022-07-29T01:30:55.365Z,78.26
2022-07-29T01:32:03.173Z,78.26
2022-07-29T01:32:52.987Z,78.07
2022-07-29T01:33:52.728Z,77.78
2022-07-29T01:34:52.990Z,78.07
2022-07-29T01:35:52.965Z,77.97
2022-07-29T01:36:52.954Z,78.64
2022-07-29T01:37:52.945Z,78.83
2022-07-29T01:38:52.679Z,79.22
2022-07-29T01:39:52.928Z,78.83
2022-07-29T01:40:52.921Z,79.31
2022-07-29T01:41:52.912Z,79.69
2022-07-29T01:42:52.904Z,80.17
2022-07-29T01:43:52.901Z,80.65
2022-07-29T01:44:52.892Z,80.93
2022-07-29T01:45:52.625Z,82.28
2022-07-29T01:46:53.037Z,82.84
2022-07-29T01:47:52.862Z,82.46
2022-07-29T01:48:53.008Z,83.33
2022-07-29T01:49:52.850Z,83.99
2022-07-29T01:50:52.838Z,84.47
2022-07-29T01:51:52.835Z,85.14
2022-07-29T01:52:52.817Z,86
2022-07-29T01:53:52.558Z,86.76
2022-07-29T01:54:52.803Z,87.82
2022-07-29T01:55:52.541Z,87.57
2022-07-29T01:56:52.539Z,88.24
2022-07-29T01:57:52.780Z,89.15
2022-07-29T01:58:52.772Z,89.29
2022-07-29T01:59:52.765Z,89.48
2022-07-29T02:00:52.749Z,89.82
2022-07-29T02:01:56.970Z,89.92
2022-07-29T02:02:52.738Z,90.2
2022-07-29T02:03:52.481Z,90.39
2022-07-29T02:04:52.830Z,92.54
2022-07-29T02:05:52.716Z,93.5
2022-07-29T02:06:52.709Z,94.26
2022-07-29T02:07:52.439Z,94.93
2022-07-29T02:08:52.439Z,95.46
2022-07-29T02:09:52.703Z,96.61
2022-07-29T02:10:52.690Z,98.04
2022-07-29T02:11:52.664Z,98.85
2022-07-29T02:12:53.445Z,99.99
2022-07-29T02:13:52.656Z,99.99
2022-07-29T02:14:52.390Z,99.99
2022-07-29T02:15:52.801Z,98.95
2022-07-29T02:16:52.629Z,99.04
2022-07-29T02:17:52.364Z,98.85
2022-07-29T02:18:52.932Z,99.99
2022-07-29T02:19:52.603Z,99.99
2022-07-29T02:20:52.351Z,99.99
2022-07-29T02:21:52.347Z,99.99
2022-07-29T02:22:52.585Z,99.99
2022-07-29T02:23:54.080Z,99.99
2022-07-29T02:24:52.580Z,99.99
2022-07-29T02:25:52.831Z,99.99
2022-07-29T02:26:52.553Z,99.99
2022-07-29T02:27:52.558Z,99.99
2022-07-29T02:28:52.535Z,99.99
2022-07-29T02:29:52.280Z,99.99
2022-07-29T02:30:52.759Z,99.99
2022-07-29T02:31:52.502Z,99.99
2022-07-29T02:32:52.496Z,99.99
2022-07-29T02:33:52.491Z,99.99
2022-07-29T02:34:52.485Z,99.99
2022-07-29T02:35:52.225Z,99.99
2022-07-29T02:36:52.464Z,99.99
2022-07-29T02:37:52.454Z,99.99
2022-07-29T02:38:52.448Z,99.99
2022-07-29T02:39:52.190Z,99.99
2022-07-29T02:40:52.174Z,99.99
2022-07-29T02:41:52.428Z,99.99
2022-07-29T02:42:52.423Z,99.99
2022-07-29T02:43:52.407Z,99.99
2022-07-29T02:44:52.405Z,99.99
2022-07-29T02:45:54.381Z,99.99
2022-07-29T02:46:52.539Z,99.99
2022-07-29T02:47:52.374Z,99.99
2022-07-29T02:48:52.741Z,99.99
2022-07-29T02:49:52.105Z,99.99
2022-07-29T02:50:52.102Z,99.99
2022-07-29T02:51:52.341Z,99.99
2022-07-29T02:52:52.080Z,99.99
2022-07-29T02:53:52.331Z,99.99
2022-07-29T02:54:52.062Z,99.99
2022-07-29T02:55:52.312Z,99.99
2022-07-29T02:56:52.302Z,99.99
2022-07-29T02:57:57.752Z,99.99
2022-07-29T02:58:52.285Z,99.99
2022-07-29T02:59:52.282Z,99.99
2022-07-29T03:00:52.272Z,99.99
2022-07-29T03:01:52.413Z,99.99
2022-07-29T03:02:52.255Z,99.99
2022-07-29T03:03:52.248Z,99.99
2022-07-29T03:04:52.357Z,99.99
2022-07-29T03:05:52.232Z,99.99
2022-07-29T03:06:51.967Z,99.99
2022-07-29T03:07:52.217Z,99.99
2022-07-29T03:08:51.950Z,99.99
2022-07-29T03:09:51.946Z,99.99
2022-07-29T03:10:52.196Z,99.99
2022-07-29T03:11:53.275Z,99.99
2022-07-29T03:12:52.188Z,99.99
2022-07-29T03:13:52.170Z,99.99
2022-07-29T03:14:52.157Z,99.99
2022-07-29T03:15:51.972Z,99.99
2022-07-29T03:16:52.162Z,99.99
2022-07-29T03:17:52.140Z,99.99
2022-07-29T03:18:52.145Z,99.99
2022-07-29T03:19:52.122Z,99.99
2022-07-29T03:20:51.856Z,99.99
2022-07-29T03:21:52.108Z,99.99
2022-07-29T03:22:51.853Z,99.99
2022-07-29T03:23:51.837Z,99.99
2022-07-29T03:24:52.079Z,99.99
2022-07-29T03:25:52.073Z,99.99
2022-07-29T03:26:52.064Z,99.99
2022-07-29T03:27:52.062Z,99.99
2022-07-29T03:28:52.179Z,99.99
2022-07-29T03:29:53.146Z,99.99
2022-07-29T03:30:52.221Z,99.99
2022-07-29T03:31:52.053Z,99.99
2022-07-29T03:32:54.239Z,99.99
2022-07-29T03:50:01.219Z,99.99
2022-07-29T03:51:01.457Z,99.99
2022-07-29T03:52:01.431Z,99.99
2022-07-29T03:53:01.454Z,99.99
2022-07-29T03:54:03.870Z,99.99
2022-07-29T03:55:01.142Z,99.99
2022-07-29T03:56:01.464Z,99.99
2022-07-29T03:57:01.119Z,99.99
2022-07-29T03:58:01.364Z,99.99
2022-07-29T03:59:01.355Z,99.99
2022-07-29T04:00:01.344Z,99.99
2022-07-29T04:01:01.334Z,99.99
2022-07-29T04:02:01.945Z,99.99
2022-07-29T04:03:01.248Z,99.99
2022-07-29T04:04:01.306Z,99.99
2022-07-29T04:05:01.317Z,99.99
2022-07-29T04:06:01.288Z,99.99
2022-07-29T04:07:01.020Z,99.99
2022-07-29T04:08:01.276Z,99.99
2022-07-29T04:09:01.263Z,99.99
2022-07-29T04:10:01.632Z,99.99
2022-07-29T04:11:00.983Z,99.99
2022-07-29T04:12:06.246Z,99.99
2022-07-29T04:13:01.222Z,99.99
2022-07-29T04:14:00.962Z,99.99
2022-07-29T04:15:01.207Z,99.99
2022-07-29T04:16:01.086Z,99.99
2022-07-29T04:17:00.933Z,99.99
2022-07-29T04:18:00.932Z,99.99
2022-07-29T04:19:01.173Z,99.99
2022-07-29T04:20:01.165Z,99.99
2022-07-29T04:21:00.902Z,99.99
2022-07-29T04:22:00.894Z,99.99
2022-07-29T04:23:01.151Z,99.99
2022-07-29T04:24:00.878Z,99.99
2022-07-29T04:25:05.773Z,99.99
2022-07-29T04:26:01.118Z,99.99
2022-07-29T04:27:00.861Z,99.99
2022-07-29T04:28:01.156Z,99.99
2022-07-29T04:29:01.090Z,99.99
2022-07-29T04:30:00.827Z,99.99
2022-07-29T04:31:01.139Z,99.99
2022-07-29T04:32:00.810Z,99.99
2022-07-29T04:33:01.058Z,99.99
2022-07-29T04:34:01.053Z,99.99
2022-07-29T04:35:00.790Z,99.99
2022-07-29T04:36:01.493Z,99.99
2022-07-29T04:37:00.772Z,99.99
2022-07-29T04:38:00.764Z,99.99
2022-07-29T04:39:01.018Z,99.99
2022-07-29T04:40:00.750Z,99.99
2022-07-29T04:41:01.003Z,99.99
2022-07-29T04:42:01.463Z,99.99
2022-07-29T04:43:03.371Z,99.99
2022-07-29T04:44:02.210Z,99.99
2022-07-29T04:45:03.664Z,99.99
2022-07-29T04:46:01.050Z,99.99
2022-07-29T04:47:00.993Z,99.99
2022-07-29T04:48:00.953Z,99.99
2022-07-29T04:49:00.825Z,99.99
2022-07-29T04:50:00.680Z,99.99
2022-07-29T04:51:00.999Z,98.71
2022-07-29T04:52:00.714Z,97.38
2022-07-29T04:53:00.908Z,96.8
2022-07-29T04:54:00.901Z,96.32
2022-07-29T04:55:00.893Z,94.79
2022-07-29T04:56:00.629Z,94.12
2022-07-29T04:57:00.635Z,93.93
2022-07-29T04:58:01.212Z,93.35
2022-07-29T04:59:00.864Z,93.64
2022-07-29T05:00:00.856Z,94.02
2022-07-29T05:01:00.596Z,94.12
2022-07-29T05:02:00.755Z,94.02
2022-07-29T05:03:01.120Z,93.64
2022-07-29T05:04:03.111Z,93.35
2022-07-29T05:05:00.826Z,93.83
2022-07-29T05:06:00.813Z,93.45
2022-07-29T05:07:00.808Z,93.45
2022-07-29T05:08:00.799Z,93.21
2022-07-29T05:09:00.537Z,92.87
2022-07-29T05:10:00.785Z,93.21
2022-07-29T05:11:17.000Z,93.21
2022-07-29T05:12:00.770Z,93.11
2022-07-29T05:13:00.512Z,93.69
2022-07-29T05:14:00.757Z,93.88
2022-07-29T05:15:00.504Z,93.88
2022-07-29T05:16:00.689Z,93.59
2022-07-29T05:17:00.740Z,93.88
2022-07-29T05:18:00.744Z,93.69
2022-07-29T05:19:00.475Z,93.02
2022-07-29T05:20:00.468Z,92.92
2022-07-29T05:21:00.457Z,92.92
2022-07-29T05:22:00.470Z,93.59
2022-07-29T05:23:00.703Z,94.17
2022-07-29T05:24:00.693Z,94.07
2022-07-29T05:25:03.264Z,94.74
2022-07-29T05:26:00.681Z,94.84
2022-07-29T05:27:00.695Z,94.45
2022-07-29T05:28:00.667Z,95.03
2022-07-29T05:29:00.676Z,95.12
2022-07-29T05:30:00.657Z,95.12
2022-07-29T05:31:00.497Z,94.84
2022-07-29T05:32:00.641Z,94.84
2022-07-29T05:33:00.636Z,94.35
2022-07-29T05:34:00.643Z,94.55
2022-07-29T05:35:00.621Z,94.45
2022-07-29T05:36:03.125Z,94.79
2022-07-29T05:37:00.356Z,94.4
2022-07-29T05:38:00.609Z,94.5
2022-07-29T05:39:00.599Z,94.79
2022-07-29T05:40:01.310Z,94.4
2022-07-29T05:41:00.667Z,94.02
2022-07-29T05:42:00.584Z,93.63
2022-07-29T05:43:00.589Z,93.26
2022-07-29T05:44:00.573Z,92.68
2022-07-29T05:45:00.563Z,92.2
2022-07-29T05:46:00.801Z,92.2
2022-07-29T05:47:00.603Z,92.1
2022-07-29T05:48:00.295Z,91.43
2022-07-29T05:49:00.646Z,91.72
2022-07-29T05:50:00.538Z,91.63
2022-07-29T05:51:00.282Z,91.14
2022-07-29T05:52:00.522Z,90.81
2022-07-29T05:53:00.517Z,90.52
2022-07-29T05:54:00.259Z,90.61
2022-07-29T05:55:00.503Z,90.23
2022-07-29T05:56:00.498Z,90.04
2022-07-29T05:57:00.496Z,90.14
2022-07-29T05:58:00.233Z,89.85
2022-07-29T05:59:00.224Z,90.04
2022-07-29T06:00:00.498Z,90.23
2022-07-29T06:01:00.675Z,89.08
2022-07-29T06:02:00.952Z,88.65
2022-07-29T06:03:00.463Z,87.64
2022-07-29T06:04:00.296Z,86.82
2022-07-29T06:05:00.383Z,87.01
2022-07-29T06:06:00.446Z,86.63
2022-07-29T06:07:00.436Z,86.63
2022-07-29T06:08:00.434Z,86.44
2022-07-29T06:09:00.424Z,86.05
2022-07-29T06:10:00.177Z,86.05
2022-07-29T06:11:00.417Z,85.48
2022-07-29T06:12:00.152Z,85.67
2022-07-29T06:13:00.407Z,85.28
2022-07-29T06:14:00.144Z,84.95
2022-07-29T06:15:00.401Z,84.27
2022-07-29T06:16:01.752Z,84.23
2022-07-29T06:17:00.386Z,84.18
2022-07-29T06:18:02.581Z,85.42
2022-07-29T06:19:00.371Z,85.33
2022-07-29T06:20:00.375Z,86.19
2022-07-29T06:21:00.365Z,86.29
2022-07-29T06:22:00.362Z,86.87
2022-07-29T06:23:00.372Z,86.58
2022-07-29T06:24:00.344Z,85.91
2022-07-29T06:25:00.348Z,85.91
2022-07-29T06:26:00.340Z,85.24
2022-07-29T06:27:00.082Z,85.14
2022-07-29T06:28:00.333Z,84.8
2022-07-29T06:29:00.323Z,84.27
2022-07-29T06:30:00.796Z,84.31
2022-07-29T06:31:00.464Z,82.87
2022-07-29T06:32:00.306Z,82.49
2022-07-29T06:33:00.309Z,81.24
2022-07-29T06:34:00.773Z,81.09
2022-07-29T06:35:39.631Z,78.69
2022-07-29T06:36:02.469Z,78.02
2022-07-29T06:37:02.251Z,77.92
2022-07-29T06:38:03.048Z,77.58
2022-07-29T06:39:04.912Z,76.52
2022-07-29T06:40:02.463Z,76.32
2022-07-29T06:41:02.453Z,76.14
2022-07-29T06:42:02.195Z,75.75
2022-07-29T06:43:02.443Z,75.75
2022-07-29T06:44:02.178Z,76.04
2022-07-29T06:45:06.167Z,75.75
2022-07-29T06:46:02.623Z,75.56
2022-07-29T06:47:02.167Z,75.56
2022-07-29T06:48:02.163Z,75.75
2022-07-29T06:49:02.355Z,74.79
2022-07-29T06:50:02.161Z,74.69
2022-07-29T06:51:02.175Z,74.69
2022-07-29T06:52:02.401Z,75.07
2022-07-29T06:53:02.412Z,74.4
2022-07-29T06:54:05.635Z,74.6
2022-07-29T06:55:02.133Z,73.54
2022-07-29T06:56:02.145Z,74.34
2022-07-29T06:57:02.388Z,74.05
2022-07-29T06:58:02.128Z,73.47
2022-07-29T06:59:03.731Z,73.19
2022-07-29T07:00:02.370Z,73.09
2022-07-29T07:01:02.234Z,73.96
2022-07-29T07:02:02.503Z,74.76
2022-07-29T07:03:02.105Z,74.67
2022-07-29T07:04:02.355Z,73.97
2022-07-29T07:05:02.369Z,71.5
2022-07-29T07:06:02.632Z,68.59
2022-07-29T07:07:02.348Z,64.76
2022-07-29T07:08:02.345Z,61.34
2022-07-29T07:09:02.085Z,61.15
2022-07-29T07:10:02.081Z,59.51
2022-07-29T07:11:02.338Z,61.05
2022-07-29T07:12:02.331Z,61.41
2022-07-29T07:13:02.331Z,63.82
2022-07-29T07:14:06.284Z,62.02
2022-07-29T07:15:02.064Z,59.66
2022-07-29T07:16:02.334Z,57.37
2022-07-29T07:17:02.453Z,55.94
2022-07-29T07:18:02.317Z,53.65
2022-07-29T07:19:02.073Z,51.16
2022-07-29T07:20:02.064Z,49.02
2022-07-29T07:21:02.068Z,47.02
2022-07-29T07:22:03.672Z,46.45
2022-07-29T07:23:02.313Z,46.48
2022-07-29T07:24:02.313Z,45.02
2022-07-29T07:25:02.127Z,44.54
2022-07-29T07:26:02.339Z,44.56
2022-07-29T07:27:02.058Z,46.01
2022-07-29T07:28:02.309Z,46.98
2022-07-29T07:29:02.050Z,45.8
2022-07-29T07:30:02.317Z,45.2
2022-07-29T07:31:02.311Z,47.4
2022-07-29T07:32:03.469Z,49.54
2022-07-29T07:33:02.311Z,48.59
2022-07-29T07:34:02.060Z,44.68
2022-07-29T07:35:02.058Z,40.72
2022-07-29T07:36:02.055Z,39.47
2022-07-29T07:37:02.310Z,37.64
2022-07-29T07:38:02.317Z,37.39
2022-07-29T07:39:02.322Z,37.33
2022-07-29T07:40:02.327Z,37.7
2022-07-29T07:41:02.311Z,37.85
2022-07-29T07:42:02.075Z,39.49
2022-07-29T07:43:02.065Z,41.61
2022-07-29T07:44:02.066Z,41.9
2022-07-29T07:45:15.885Z,40.25
2022-07-29T07:46:02.205Z,39.69
2022-07-29T07:47:12.413Z,38.81
2022-07-29T07:48:02.332Z,38.6
2022-07-29T07:49:02.456Z,38.87
2022-07-29T07:50:02.336Z,39.53
2022-07-29T07:51:02.333Z,40.09
2022-07-29T07:52:02.338Z,40.46
2022-07-29T07:53:02.338Z,41.02
2022-07-29T07:54:02.820Z,41.78
2022-07-29T07:55:02.122Z,42.85
2022-07-29T07:56:13.239Z,43.02
2022-07-29T07:57:02.371Z,43.41
2022-07-29T07:58:02.349Z,43.5
2022-07-29T07:59:02.351Z,43.02
2022-07-29T08:00:02.089Z,43.19
2022-07-29T08:01:02.472Z,43.19
2022-07-29T08:02:02.374Z,43.29
2022-07-29T08:03:02.465Z,44.09
2022-07-29T08:04:02.352Z,44.09
2022-07-29T08:05:02.103Z,43.02
2022-07-29T08:06:02.098Z,43.41
2022-07-29T08:07:02.093Z,44.16
2022-07-29T08:08:02.155Z,44.64
2022-07-29T08:09:30.711Z,45.32
2022-07-29T08:10:02.095Z,45.3
2022-07-29T08:11:09.322Z,46.26
2022-07-29T08:12:02.141Z,46.92
2022-07-29T08:13:02.985Z,47.69
2022-07-29T08:14:02.350Z,47.99
2022-07-29T08:15:02.350Z,47.19
2022-07-29T08:16:02.434Z,46.9
2022-07-29T08:17:02.315Z,46.88
2022-07-29T08:18:08.015Z,46.68
2022-07-29T08:19:02.354Z,48.71
2022-07-29T08:20:02.354Z,51.51
2022-07-29T08:21:02.133Z,51.61
2022-07-29T08:22:03.020Z,50.43
2022-07-29T08:23:03.024Z,49.58
2022-07-29T08:24:09.433Z,49
2022-07-29T08:25:02.763Z,51.44
2022-07-29T08:26:03.023Z,50.02
2022-07-29T08:27:03.030Z,47.91
2022-07-29T08:28:03.018Z,46.94
2022-07-29T08:29:03.022Z,46.29
2022-07-29T08:30:03.023Z,44.93
2022-07-29T08:31:03.023Z,43.89
2022-07-29T08:32:03.151Z,42.92
2022-07-29T08:33:03.455Z,43.04
2022-07-29T08:34:03.026Z,42.85
2022-07-29T08:35:03.022Z,42.94
2022-07-29T08:36:03.020Z,42.65
2022-07-29T08:37:02.771Z,42.36
2022-07-29T08:38:04.899Z,42.07
2022-07-29T08:39:03.028Z,42.46
2022-07-29T08:40:03.039Z,42.09
2022-07-29T08:41:03.036Z,42.21
2022-07-29T08:42:03.537Z,41.89
2022-07-29T08:43:02.841Z,41.82
2022-07-29T08:44:03.034Z,41.53
2022-07-29T08:45:02.781Z,40.46
2022-07-29T08:46:02.862Z,40.36
2022-07-29T08:47:03.043Z,40.29
2022-07-29T08:48:03.044Z,40.58
2022-07-29T08:49:02.979Z,39.7
2022-07-29T08:50:03.043Z,40.48
2022-07-29T08:51:03.128Z,40.39
2022-07-29T08:52:02.790Z,40.48
2022-07-29T08:53:02.795Z,40.5
2022-07-29T08:54:03.046Z,40.5
2022-07-29T08:55:03.055Z,40.31
2022-07-29T08:56:03.046Z,40.62
2022-07-29T08:57:03.083Z,40.01
2022-07-29T08:58:02.798Z,39.84
2022-07-29T08:59:07.263Z,40.11
2022-07-29T09:00:11.550Z,40.81
2022-07-29T09:01:03.879Z,41.01
2022-07-29T09:02:02.937Z,40.81
2022-07-29T09:03:03.060Z,40.62
2022-07-29T09:04:03.236Z,40.52
2022-07-29T09:05:02.809Z,40.15
2022-07-29T09:06:03.074Z,40.81
2022-07-29T09:07:02.811Z,42.39
2022-07-29T09:08:03.073Z,41.42
2022-07-29T09:09:03.079Z,40.34
2022-07-29T09:10:02.825Z,39.76
2022-07-29T09:11:06.371Z,39.28
2022-07-29T09:12:03.081Z,39.18
2022-07-29T09:13:02.826Z,40.27
2022-07-29T09:14:02.832Z,40.85
2022-07-29T09:15:02.826Z,39.98
2022-07-29T09:16:09.255Z,40.08
2022-07-29T09:17:04.282Z,39.98
2022-07-29T09:18:03.094Z,40
2022-07-29T09:19:03.103Z,39.31
2022-07-29T09:20:02.848Z,38.65
2022-07-29T09:21:02.842Z,38.95
2022-07-29T09:22:06.017Z,38.46
2022-07-29T09:23:02.850Z,37.87
2022-07-29T09:24:02.856Z,38.07
2022-07-29T09:25:02.856Z,38.56
2022-07-29T09:26:02.859Z,38.44
2022-07-29T09:27:03.114Z,38.36
2022-07-29T09:28:03.123Z,39.43
2022-07-29T09:29:02.866Z,38.36
2022-07-29T09:30:03.140Z,37.97
2022-07-29T09:31:02.874Z,38.17
2022-07-29T09:32:03.109Z,39.62
2022-07-29T09:33:03.139Z,39.34
2022-07-29T09:34:03.459Z,38.95
2022-07-29T09:35:03.139Z,38.85
2022-07-29T09:36:04.108Z,37.31
2022-07-29T09:37:02.890Z,36.92
2022-07-29T09:38:03.173Z,37.12
2022-07-29T09:39:03.153Z,37.89
2022-07-29T09:40:03.161Z,37.12
2022-07-29T09:41:08.701Z,39.26
2022-07-29T09:42:03.165Z,37.99
2022-07-29T09:43:03.166Z,36.43
2022-07-29T09:44:03.174Z,36.53
2022-07-29T09:45:02.925Z,36.04
2022-07-29T09:46:03.181Z,36.14
2022-07-29T09:47:03.076Z,36.14
2022-07-29T09:48:03.189Z,36.63
2022-07-29T09:49:03.052Z,37.21
2022-07-29T09:50:03.282Z,36.63
2022-07-29T09:51:03.203Z,36.63
2022-07-29T09:52:02.946Z,37.21
2022-07-29T09:53:02.947Z,37.13
2022-07-29T09:54:02.970Z,37.04
2022-07-29T09:55:02.969Z,36.55
2022-07-29T09:56:02.975Z,36.65
2022-07-29T09:57:03.219Z,36.57
2022-07-29T09:58:02.963Z,35.2
2022-07-29T09:59:02.970Z,35.18
2022-07-29T10:00:03.228Z,35.47
2022-07-29T10:01:03.371Z,35.86
2022-07-29T10:02:02.982Z,36.06
2022-07-29T10:03:03.101Z,36.74
2022-07-29T10:04:02.993Z,36.57
2022-07-29T10:05:02.995Z,37.63
2022-07-29T10:06:03.250Z,37.45
2022-07-29T10:07:07.419Z,36.37
2022-07-29T10:08:03.007Z,36.16
2022-07-29T10:09:03.265Z,35.88
2022-07-29T10:10:03.267Z,36.16
2022-07-29T10:11:03.018Z,35.49
2022-07-29T10:12:03.339Z,35.2
2022-07-29T10:13:13.508Z,34.61
2022-07-29T10:14:03.285Z,34.52
2022-07-29T10:15:03.287Z,34.52
2022-07-29T10:16:03.124Z,34.59
2022-07-29T10:17:03.039Z,34.21
2022-07-29T10:18:03.043Z,34.5
2022-07-29T10:19:03.048Z,35.18
2022-07-29T10:20:03.554Z,35.67
2022-07-29T10:21:03.313Z,35.85
2022-07-29T10:22:03.894Z,34.88
2022-07-29T10:23:03.324Z,34.66
2022-07-29T10:24:03.960Z,35.15
2022-07-29T10:25:03.331Z,35.44
2022-07-29T10:26:03.328Z,35.63
2022-07-29T10:27:03.081Z,35.44
2022-07-29T10:28:03.082Z,35.34
2022-07-29T10:29:03.345Z,36.2
2022-07-29T10:30:03.340Z,36.1
2022-07-29T10:31:03.170Z,36.2
2022-07-29T10:32:03.092Z,36.28
2022-07-29T10:33:03.363Z,36.38
2022-07-29T10:34:03.699Z,37.18
2022-07-29T10:35:03.368Z,37.18
2022-07-29T10:36:03.364Z,36.2
2022-07-29T10:37:03.446Z,36.4
2022-07-29T10:38:03.844Z,36.51
2022-07-29T10:39:05.729Z,36.63
2022-07-29T10:40:03.382Z,36.43
2022-07-29T10:41:04.114Z,36.24
2022-07-29T10:42:05.922Z,35.96
2022-07-29T10:43:03.232Z,35.28
2022-07-29T10:44:03.142Z,34.79
2022-07-29T10:45:04.299Z,34.89
2022-07-29T10:46:03.404Z,34.5
2022-07-29T10:47:04.191Z,34.58
2022-07-29T10:48:03.409Z,34.29
2022-07-29T10:49:03.772Z,35.46
2022-07-29T10:50:03.676Z,36.24
2022-07-29T10:51:03.908Z,36.71
2022-07-29T10:52:03.575Z,37.1
2022-07-29T10:53:03.432Z,37.58
2022-07-29T10:54:03.488Z,38.46
2022-07-29T10:55:05.386Z,37.87
2022-07-29T10:56:08.358Z,37.58
2022-07-29T10:57:03.186Z,36.53
2022-07-29T10:58:03.187Z,36.04
2022-07-29T10:59:03.375Z,36.25
2022-07-29T11:00:03.199Z,35.88
2022-07-29T11:01:06.110Z,34.42
2022-07-29T11:02:41.197Z,33.83
2022-07-29T11:03:08.600Z,34.63
2022-07-29T11:04:03.653Z,34.73
2022-07-29T11:05:03.216Z,33.36
2022-07-29T11:06:08.488Z,33.54
2022-07-29T11:07:06.045Z,33.15
2022-07-29T11:08:04.535Z,34.32
2022-07-29T11:09:04.531Z,34.42
2022-07-29T11:10:03.515Z,33.73
2022-07-29T11:11:03.496Z,34.32
2022-07-29T11:12:05.375Z,34.32
2022-07-29T11:13:03.506Z,34.4
2022-07-29T11:14:03.511Z,34.5
2022-07-29T11:15:03.258Z,35.28
2022-07-29T11:16:03.518Z,34.31
2022-07-29T11:17:03.265Z,33.53
2022-07-29T11:18:03.560Z,36.53
2022-07-29T11:19:04.990Z,36.33
2022-07-29T11:20:03.536Z,35.85
2022-07-29T11:21:03.561Z,35.85
2022-07-29T11:22:04.645Z,35.46
2022-07-29T11:23:05.386Z,35.46
2022-07-29T11:24:04.816Z,36.63
2022-07-29T11:25:04.844Z,36.63
2022-07-29T11:26:05.757Z,35.55
2022-07-29T11:27:05.403Z,35.46
2022-07-29T11:28:04.249Z,36.16
2022-07-29T11:29:04.554Z,36.25
2022-07-29T11:30:05.456Z,35.96
2022-07-29T11:31:04.526Z,34.81
2022-07-29T11:32:04.265Z,34.32
2022-07-29T11:33:05.266Z,35.12
2022-07-29T11:34:08.056Z,34.91
2022-07-29T11:35:27.735Z,34.32
2022-07-29T11:36:08.421Z,34.83
2022-07-29T11:37:07.195Z,35.22
2022-07-29T11:38:06.858Z,34.83
2022-07-29T11:39:11.036Z,33.93
2022-07-29T11:40:07.619Z,33.06
2022-07-29T11:41:07.645Z,32.75
2022-07-29T11:42:16.075Z,33.8
2022-07-29T11:43:09.898Z,34.39
2022-07-29T11:44:10.981Z,36.12
2022-07-29T11:45:47.126Z,36.32
2022-07-29T11:46:07.252Z,36.22
2022-07-29T11:47:09.188Z,35.15
2022-07-29T11:48:32.590Z,35.53
2022-07-29T11:49:11.853Z,35.85
2022-07-29T11:50:12.665Z,35.65
2022-07-29T11:51:08.733Z,36.24
2022-07-29T11:52:07.724Z,35.28
2022-07-29T11:53:11.314Z,34.79
2022-07-29T11:54:07.722Z,34.01
2022-07-29T11:55:12.416Z,33.44
2022-07-29T11:56:07.441Z,34.01
2022-07-29T11:57:07.186Z,33.82
2022-07-29T11:58:06.934Z,34.11
2022-07-29T11:59:10.727Z,35.18
2022-07-29T12:00:12.073Z,35.16
2022-07-29T12:01:07.948Z,34.39
2022-07-29T12:07:23.332Z,34.48
2022-07-29T12:08:23.167Z,34.19
2022-07-29T12:09:23.004Z,35.26
2022-07-29T12:10:33.056Z,37.5
2022-07-29T12:11:24.344Z,36.63
2022-07-29T12:12:26.852Z,36.53
2022-07-29T12:13:37.329Z,36.25
2022-07-29T12:14:23.221Z,36.06
2022-07-29T12:15:24.607Z,35.38
2022-07-29T12:16:30.015Z,33.62
2022-07-29T12:17:23.255Z,34.01
2022-07-29T12:18:26.778Z,34.31
2022-07-29T12:19:23.243Z,34.69
2022-07-29T12:20:23.244Z,34.03
2022-07-29T12:21:28.588Z,32.76
2022-07-29T12:22:27.387Z,32.47
2022-07-29T12:23:23.336Z,32.84
2022-07-29T12:24:26.617Z,33.82
2022-07-29T12:25:38.624Z,32.75
2022-07-29T12:26:25.694Z,33.14
2022-07-29T12:27:32.038Z,33.62
2022-07-29T12:28:29.814Z,34.48
2022-07-29T12:29:36.947Z,34.68
2022-07-29T12:30:24.657Z,34.5
2022-07-29T12:31:45.902Z,33.72
2022-07-29T12:32:23.378Z,34.01
2022-07-29T12:33:23.050Z,33.53
2022-07-29T12:34:23.305Z,34.09
2022-07-29T12:35:23.304Z,34.21
2022-07-29T12:36:23.314Z,34.59
2022-07-29T12:37:43.071Z,34.79
2022-07-29T12:38:23.320Z,33.64
2022-07-29T12:39:23.320Z,33.72
2022-07-29T12:40:23.071Z,34.21
2022-07-29T12:41:23.331Z,34.21
2022-07-29T12:42:25.870Z,33.53
2022-07-29T12:43:23.338Z,33.14
2022-07-29T12:44:23.092Z,33.9
2022-07-29T12:45:23.347Z,35.94
2022-07-29T12:46:23.553Z,35.53
2022-07-29T12:47:23.351Z,35.53
2022-07-29T12:48:23.405Z,35.63
2022-07-29T12:49:23.201Z,36.61
2022-07-29T12:50:28.534Z,36.12
2022-07-29T12:51:23.372Z,36.02
2022-07-29T12:52:23.120Z,36.22
2022-07-29T12:53:23.381Z,36.51
2022-07-29T12:54:23.129Z,36.12
2022-07-29T12:55:23.380Z,36.61
2022-07-29T12:56:45.103Z,37.19
2022-07-29T12:57:23.137Z,37.29
2022-07-29T12:58:23.399Z,37
2022-07-29T12:59:23.407Z,37.19
2022-07-29T13:00:23.159Z,36.41
2022-07-29T13:01:23.702Z,36.59
2022-07-29T13:02:23.556Z,36.3
2022-07-29T13:03:23.718Z,36.59
2022-07-29T13:04:23.419Z,36.47
2022-07-29T13:05:23.694Z,37.26
2022-07-29T13:06:23.427Z,37.93
2022-07-29T13:07:57.465Z,38.5
2022-07-29T13:08:25.246Z,38.21
2022-07-29T13:09:24.259Z,37.92
2022-07-29T13:10:26.549Z,37.72
2022-07-29T13:11:24.256Z,38.11
2022-07-29T13:12:24.266Z,38.5
2022-07-29T13:13:24.615Z,38.01
2022-07-29T13:14:24.015Z,38.01
2022-07-29T13:15:24.271Z,38.4
2022-07-29T13:16:27.658Z,38.79
2022-07-29T13:17:24.136Z,38.57